Time;durP1;ratioP1;P1;durP2;ratioP2;P2;SDS_P1;SDS_P2;PMS_P1;PMS_P2;Temp;Humidity;BMP_temperature;BMP_pressure;BME280_temperature;BME280_humidity;BME280_pressure;Samples;Min_cycle;Max_cycle;Signal;HPM_P1;HPM_P2
2023/05/12 00:01:15;;;;;;;4.55;1.95;;;;;;;10.96;100.00;97894.81;4426300;32;19991;-84
2023/05/12 00:03:42;;;;;;;7.40;2.97;;;;;;;11.17;100.00;97872.31;4425903;32;20158;-84
2023/05/12 00:06:10;;;;;;;8.15;3.15;;;;;;;10.89;100.00;97883.09;4426040;32;20101;-84
2023/05/12 00:08:37;;;;;;;7.90;3.20;;;;;;;11.22;100.00;97883.22;4426167;32;20660;-84
2023/05/12 00:11:04;;;;;;;8.45;3.20;;;;;;;11.33;100.00;97877.56;4425729;32;20093;-84
2023/05/12 00:13:31;;;;;;;7.47;3.40;;;;;;;10.62;100.00;97884.34;4425973;32;20156;-84
2023/05/12 00:15:58;;;;;;;7.87;3.42;;;;;;;11.11;100.00;97879.50;4425831;32;20097;-84
2023/05/12 00:18:27;;;;;;;9.50;3.85;;;;;;;11.20;100.00;97882.47;4425622;32;20094;-84
2023/05/12 00:20:54;;;;;;;9.70;3.60;;;;;;;10.72;100.00;97870.12;4426046;32;20127;-85
2023/05/12 00:23:21;;;;;;;8.77;3.40;;;;;;;10.72;100.00;97860.63;4426079;32;20090;-84
2023/05/12 00:25:49;;;;;;;9.75;4.18;;;;;;;10.76;100.00;97876.00;4425529;32;20149;-84
2023/05/12 00:28:17;;;;;;;9.95;3.58;;;;;;;10.87;100.00;97877.16;4412158;32;20086;-84
2023/05/12 00:30:44;;;;;;;10.02;4.18;;;;;;;10.83;100.00;97879.94;4425891;32;20090;-84
2023/05/12 00:33:11;;;;;;;9.57;3.25;;;;;;;11.07;100.00;97883.13;4425468;32;20094;-84
2023/05/12 00:35:38;;;;;;;8.00;2.80;;;;;;;11.24;100.00;97881.41;4425697;32;20097;-84
2023/05/12 00:38:05;;;;;;;11.75;4.60;;;;;;;11.20;100.00;97892.81;4426536;32;20094;-84
2023/05/12 00:40:32;;;;;;;;;;;;;;;11.49;100.00;97896.56;4425925;32;20073;-84
2023/05/12 00:42:59;;;;;;;10.43;4.65;;;;;;;11.35;100.00;97886.06;4425893;32;19977;-84
2023/05/12 00:45:28;;;;;;;7.53;2.55;;;;;;;11.20;100.00;97887.63;4425393;32;20163;-84
2023/05/12 00:47:55;;;;;;;8.43;3.67;;;;;;;11.24;100.00;97878.81;4425385;32;20179;-83
2023/05/12 00:50:23;;;;;;;7.85;3.08;;;;;;;11.28;100.00;97882.13;4425553;32;20437;-84
2023/05/12 00:52:50;;;;;;;8.55;3.30;;;;;;;10.91;100.00;97870.94;4425649;32;20160;-84
2023/05/12 00:55:16;;;;;;;10.50;4.20;;;;;;;10.95;100.00;97879.38;4411814;32;20166;-84
2023/05/12 00:57:44;;;;;;;5.43;2.22;;;;;;;10.78;100.00;97880.16;4425662;32;20085;-83
2023/05/12 01:00:11;;;;;;;7.20;2.97;;;;;;;11.12;100.00;97874.25;4425390;32;20124;-84
2023/05/12 01:02:38;;;;;;;8.38;3.15;;;;;;;10.85;100.00;97849.75;4425667;32;20106;-84
2023/05/12 01:05:06;;;;;;;8.80;3.95;;;;;;;11.11;100.00;97880.31;4425605;32;20155;-84
2023/05/12 01:07:33;;;;;;;6.97;2.90;;;;;;;11.01;100.00;97877.34;4425322;32;20093;-84
2023/05/12 01:10:00;;;;;;;5.05;2.42;;;;;;;10.58;100.00;97873.34;4411893;32;20459;-84
2023/05/12 01:12:27;;;;;;;9.25;3.60;;;;;;;10.89;100.00;97877.91;4425679;32;20098;-84
2023/05/12 01:14:55;;;;;;;4.85;1.90;;;;;;;11.14;100.00;97875.00;4425067;32;20621;-84
2023/05/12 01:17:27;;;;;;;5.43;2.37;;;;;;;11.11;100.00;97871.75;4425662;32;20100;-83
2023/05/12 01:19:59;;;;;;;8.30;3.12;;;;;;;11.01;100.00;97866.19;4411921;32;20086;-83
2023/05/12 01:22:30;;;;;;;7.07;2.30;;;;;;;11.00;100.00;97885.16;4411680;32;20630;-84
2023/05/12 01:25:05;;;;;;;9.05;3.17;;;;;;;11.21;100.00;97878.16;4412027;32;20159;-83
2023/05/12 01:27:33;;;;;;;6.93;3.35;;;;;;;11.13;100.00;97880.25;4411813;32;20089;-84
2023/05/12 01:30:02;;;;;;;8.13;3.40;;;;;;;11.41;100.00;97872.84;4425105;32;20138;-84
2023/05/12 01:32:29;;;;;;;4.65;2.42;;;;;;;11.11;100.00;97885.50;4425581;32;20101;-84
2023/05/12 01:34:56;;;;;;;5.60;2.53;;;;;;;11.28;100.00;97871.78;4425092;32;20202;-84
2023/05/12 01:37:25;;;;;;;6.82;3.10;;;;;;;11.22;100.00;97870.31;4425417;32;20085;-84
2023/05/12 01:39:53;;;;;;;7.35;3.00;;;;;;;11.05;100.00;97870.28;4425806;32;20082;-84
2023/05/12 01:42:20;;;;;;;7.28;2.87;;;;;;;10.83;100.00;97854.97;4425084;32;20154;-84
2023/05/12 01:44:47;;;;;;;9.15;3.30;;;;;;;10.92;100.00;97882.94;4425394;32;20112;-84
2023/05/12 01:47:14;;;;;;;6.50;2.50;;;;;;;10.84;100.00;97866.13;4425365;32;20085;-84
2023/05/12 01:49:41;;;;;;;4.50;2.08;;;;;;;11.02;100.00;97870.44;4424812;32;20104;-84
2023/05/12 01:52:08;;;;;;;;;;;;;;;10.77;100.00;97868.16;4425777;32;20117;-83
2023/05/12 01:54:35;;;;;;;7.72;3.00;;;;;;;10.88;100.00;97875.41;4425274;32;19992;-83
2023/05/12 01:57:02;;;;;;;5.70;2.00;;;;;;;11.10;100.00;97867.50;4410392;32;20565;-83
2023/05/12 01:59:29;;;;;;;7.03;2.42;;;;;;;11.11;100.00;97872.59;4425238;32;20374;-84
2023/05/12 02:01:55;;;;;;;;;;;;;;;10.88;100.00;97862.50;4425594;32;20101;-84
2023/05/12 02:04:22;;;;;;;8.48;3.97;;;;;;;11.33;100.00;97872.38;4424925;32;19977;-84
2023/05/12 02:06:50;;;;;;;6.82;2.72;;;;;;;10.94;100.00;97862.19;4411499;32;20089;-83
2023/05/12 02:09:17;;;;;;;7.68;2.85;;;;;;;10.95;100.00;97863.88;4425267;32;20054;-84
2023/05/12 02:11:44;;;;;;;5.87;2.25;;;;;;;10.49;100.00;97865.16;4424908;32;20097;-84
2023/05/12 02:14:11;;;;;;;7.50;3.25;;;;;;;11.14;100.00;97867.25;4425126;32;20097;-83
2023/05/12 02:16:38;;;;;;;3.45;1.73;;;;;;;10.63;100.00;97855.03;4425089;32;20089;-84
2023/05/12 02:19:05;;;;;;;7.72;2.80;;;;;;;10.95;100.00;97858.72;4424713;32;20148;-83
2023/05/12 02:21:32;;;;;;;5.80;2.42;;;;;;;10.66;100.00;97847.19;4425165;32;20097;-84
2023/05/12 02:23:59;;;;;;;7.43;3.10;;;;;;;11.14;100.00;97848.34;4425111;32;20164;-84
2023/05/12 02:26:26;;;;;;;5.90;2.62;;;;;;;10.74;100.00;97863.16;4424747;32;20089;-84
2023/05/12 02:28:53;;;;;;;8.05;3.67;;;;;;;10.81;100.00;97864.53;4411206;32;20086;-84
2023/05/12 02:31:20;;;;;;;7.57;2.62;;;;;;;11.20;100.00;97864.41;4424734;32;20120;-84
2023/05/12 02:33:47;;;;;;;;;;;;;;;10.57;100.00;97870.81;4425223;32;20109;-84
2023/05/12 02:36:14;;;;;;;6.45;2.95;;;;;;;11.08;100.00;97859.81;4424899;32;19983;-83
2023/05/12 02:38:40;;;;;;;;;;;;;;;10.91;100.00;97855.44;4424975;32;20108;-83
2023/05/12 02:41:07;;;;;;;6.55;2.55;;;;;;;11.10;100.00;97847.66;4425061;32;19973;-83
2023/05/12 02:43:34;;;;;;;;;;;;;;;10.57;100.00;97851.03;4425219;32;20105;-83
2023/05/12 02:46:01;;;;;;;9.75;4.50;;;;;;;11.12;100.00;97868.25;4424585;32;19973;-83
2023/05/12 02:48:28;;;;;;;7.00;2.87;;;;;;;11.05;100.00;97859.13;4424571;32;20121;-83
2023/05/12 02:50:55;;;;;;;;;;;;;;;11.33;100.00;97861.22;4425130;32;20117;-83
2023/05/12 02:53:21;;;;;;;5.87;2.53;;;;;;;11.76;100.00;97865.09;4424442;32;19981;-83
2023/05/12 02:55:49;;;;;;;7.35;2.42;;;;;;;10.78;100.00;97854.34;4424652;32;20081;-83
2023/05/12 02:58:15;;;;;;;8.48;3.53;;;;;;;11.06;100.00;97866.81;4424805;32;20425;-83
2023/05/12 03:00:42;;;;;;;5.78;2.35;;;;;;;11.08;100.00;97870.16;4424333;32;20128;-83
2023/05/12 03:03:09;;;;;;;6.07;2.53;;;;;;;10.76;100.00;97857.94;4424563;32;20101;-83
2023/05/12 03:05:36;;;;;;;8.60;3.30;;;;;;;11.19;100.00;97852.41;4424440;32;20445;-83
2023/05/12 03:08:04;;;;;;;5.75;2.72;;;;;;;11.39;100.00;97866.94;4424815;32;20101;-83
2023/05/12 03:10:31;;;;;;;5.72;2.60;;;;;;;10.98;100.00;97858.59;4426515;32;20117;-83
2023/05/12 03:12:57;;;;;;;;;;;;;;;11.12;100.00;97868.25;4413060;32;20109;-83
2023/05/12 03:15:24;;;;;;;7.15;3.37;;;;;;;11.33;100.00;97849.13;4426112;32;19980;-83
2023/05/12 03:17:51;;;;;;;;;;;;;;;11.04;100.00;97862.59;4426700;32;20089;-83
2023/05/12 03:20:18;;;;;;;5.32;2.53;;;;;;;11.17;100.00;97851.66;4426157;32;19981;-83
2023/05/12 03:22:45;;;;;;;7.28;2.87;;;;;;;10.95;100.00;97851.84;4426382;32;20093;-83
2023/05/12 03:25:12;;;;;;;8.63;3.58;;;;;;;11.26;100.00;97865.84;4426197;32;20100;-83
2023/05/12 03:27:39;;;;;;;7.12;2.55;;;;;;;10.88;100.00;97857.34;4412254;32;20077;-83
2023/05/12 03:30:07;;;;;;;6.25;2.35;;;;;;;10.88;100.00;97859.94;4426426;32;20102;-83
2023/05/12 03:32:34;;;;;;;4.60;1.90;;;;;;;10.98;100.00;97856.84;4426308;32;20116;-83
2023/05/12 03:35:01;;;;;;;11.00;3.47;;;;;;;11.10;100.00;97859.75;4425738;32;20388;-83
2023/05/12 03:37:28;;;;;;;9.63;3.92;;;;;;;10.99;100.00;97863.69;4426309;32;20081;-83
2023/05/12 03:39:55;;;;;;;10.07;4.20;;;;;;;11.55;100.00;97872.16;4426242;32;20117;-83
2023/05/12 03:42:24;;;;;;;8.30;3.28;;;;;;;11.24;100.00;97868.50;4425891;32;20797;-83
2023/05/12 03:44:51;;;;;;;9.55;2.83;;;;;;;11.86;100.00;97867.16;4426105;32;20429;-83
2023/05/12 03:47:18;;;;;;;7.75;3.22;;;;;;;11.61;100.00;97871.88;4426143;32;20155;-83
2023/05/12 03:49:45;;;;;;;7.93;3.28;;;;;;;11.37;100.00;97870.47;4425684;32;20164;-83
2023/05/12 03:52:12;;;;;;;9.77;3.72;;;;;;;11.46;100.00;97877.78;4426155;32;20116;-83
2023/05/12 03:54:39;;;;;;;9.88;4.40;;;;;;;11.20;100.00;97859.22;4426077;32;20086;-83
2023/05/12 03:57:07;;;;;;;11.98;4.10;;;;;;;11.19;100.00;97878.22;4425692;32;20078;-83
2023/05/12 03:59:33;;;;;;;5.68;2.37;;;;;;;11.33;100.00;97866.37;4426147;32;20156;-83
2023/05/12 04:02:00;;;;;;;10.32;4.70;;;;;;;10.90;100.00;97855.53;4426099;32;20156;-83
2023/05/12 04:04:27;;;;;;;10.65;5.00;;;;;;;11.29;100.00;97874.28;4425856;32;20380;-84
2023/05/12 04:06:55;;;;;;;11.38;4.93;;;;;;;11.23;100.00;97879.75;4426013;32;20082;-83
2023/05/12 04:09:21;;;;;;;10.98;3.95;;;;;;;11.64;100.00;97879.47;4425764;32;20436;-83
2023/05/12 04:11:48;;;;;;;11.85;5.53;;;;;;;11.37;100.00;97885.97;4426060;32;20118;-83
2023/05/12 04:14:15;;;;;;;8.07;3.60;;;;;;;11.49;100.00;97888.81;4426078;32;20086;-83
2023/05/12 04:16:42;;;;;;;;;;;;;;;11.41;100.00;97872.84;4412178;32;20081;-83
2023/05/12 04:19:09;;;;;;;8.45;4.25;;;;;;;11.35;100.00;97886.06;4425590;32;19981;-84
2023/05/12 04:21:36;;;;;;;7.25;3.20;;;;;;;11.19;100.00;97872.22;4412717;32;20449;-83
2023/05/12 04:24:03;;;;;;;;;;;;;;;11.20;100.00;97886.81;4426681;32;20429;-87
2023/05/12 04:26:29;;;;;;;10.80;4.18;;;;;;;11.17;100.00;97882.63;4425962;32;19981;-86
2023/05/12 04:28:56;;;;;;;;;;;;;;;11.09;100.00;97884.72;4428128;32;20094;-88
2023/05/12 04:31:23;;;;;;;9.43;3.78;;;;;;;11.14;100.00;97887.09;4426891;32;19976;-86
2023/05/12 04:33:50;;;;;;;10.10;4.37;;;;;;;11.18;100.00;97883.47;4426804;32;20085;-86
2023/05/12 04:36:17;;;;;;;6.75;2.67;;;;;;;10.92;100.00;97893.25;4427313;32;20435;-86
2023/05/12 04:38:44;;;;;;;7.15;3.28;;;;;;;11.07;100.00;97889.13;4427280;32;20097;-86
2023/05/12 04:41:11;;;;;;;;;;;;;;;11.09;100.00;97874.41;4426859;32;20471;-86
2023/05/12 04:43:38;;;;;;;7.85;3.15;;;;;;;11.04;100.00;97884.09;4426561;32;19957;-86
2023/05/12 04:46:07;;;;;;;9.15;3.95;;;;;;;11.31;100.00;97884.53;4426013;32;20373;-86
2023/05/12 04:48:40;;;;;;;7.20;2.65;;;;;;;11.04;100.00;97896.16;4426203;32;20377;-86
2023/05/12 04:51:07;;;;;;;8.73;3.90;;;;;;;11.19;100.00;97890.31;4426483;32;20112;-86
2023/05/12 04:53:35;;;;;;;8.55;3.22;;;;;;;11.41;100.00;97893.53;4426100;32;20086;-86
2023/05/12 04:56:02;;;;;;;8.43;3.22;;;;;;;11.23;100.00;97899.56;4426320;32;20342;-86
2023/05/12 04:58:29;;;;;;;6.57;2.75;;;;;;;11.11;100.00;97869.16;4426114;32;20106;-87
2023/05/12 05:00:56;;;;;;;7.80;3.00;;;;;;;11.12;100.00;97894.91;4426588;32;20117;-86
2023/05/12 05:03:23;;;;;;;8.45;3.62;;;;;;;11.35;100.00;97892.97;4426599;32;20439;-86
2023/05/12 05:05:50;;;;;;;8.27;3.42;;;;;;;11.21;100.00;97878.97;4412619;32;20078;-86
2023/05/12 05:08:17;;;;;;;8.05;3.47;;;;;;;11.27;100.00;97896.78;4426961;32;20445;-86
2023/05/12 05:10:44;;;;;;;9.60;4.40;;;;;;;11.41;100.00;97903.84;4412502;32;20393;-86
2023/05/12 05:13:11;;;;;;;8.25;3.47;;;;;;;10.96;100.00;97902.56;4426380;32;20428;-86
2023/05/12 05:15:37;;;;;;;;;;;;;;;10.91;100.00;97895.91;4427358;32;20085;-86
2023/05/12 05:18:04;;;;;;;9.82;4.82;;;;;;;10.99;100.00;97894.66;4427463;32;19981;-86
2023/05/12 05:20:33;;;;;;;10.45;4.82;;;;;;;10.97;100.00;97893.06;4426337;32;20113;-86
2023/05/12 05:23:00;;;;;;;11.43;5.25;;;;;;;11.14;100.00;97906.00;4426169;32;20096;-87
2023/05/12 05:25:27;;;;;;;;;;;;;;;11.46;100.00;97907.03;4426800;32;20086;-86
2023/05/12 05:27:54;;;;;;;9.48;4.10;;;;;;;11.24;100.00;97902.06;4427579;32;20069;-86
2023/05/12 05:30:21;;;;;;;9.40;4.32;;;;;;;11.29;100.00;97915.63;4427570;32;20117;-87
2023/05/12 05:32:48;;;;;;;6.57;2.95;;;;;;;11.34;100.00;97907.63;4426699;32;20089;-86
2023/05/12 05:35:15;;;;;;;10.32;4.57;;;;;;;10.99;100.00;97927.37;4426543;32;20112;-86
2023/05/12 05:37:42;;;;;;;9.60;4.22;;;;;;;11.35;100.00;97916.22;4426488;32;20138;-87
2023/05/12 05:40:09;;;;;;;13.35;6.57;;;;;;;11.25;100.00;97916.66;4426723;32;20093;-86
2023/05/12 05:42:36;;;;;;;9.52;4.75;;;;;;;11.24;100.00;97917.56;4413184;32;20471;-87
2023/05/12 05:45:03;;;;;;;12.85;4.65;;;;;;;11.46;100.00;97932.03;4425572;32;20082;-87
2023/05/12 05:47:31;;;;;;;9.38;4.07;;;;;;;11.39;100.00;97928.09;4425521;32;20105;-86
2023/05/12 05:52:03;;;;;;;6.35;2.72;;;;;;;11.64;100.00;97936.31;4527732;31;222384;-85
2023/05/12 05:54:30;;;;;;;8.77;3.75;;;;;;;11.64;100.00;97936.31;4508133;31;20112;-86
2023/05/12 05:56:59;;;;;;;;;;;;;;;11.23;100.00;97922.81;4485841;32;20088;-85
2023/05/12 05:59:26;;;;;;;10.45;4.18;;;;;;;11.15;100.00;97933.50;4500717;32;19956;-85
2023/05/12 06:01:53;;;;;;;9.35;4.30;;;;;;;11.08;100.00;97931.28;4509091;32;20089;-84
2023/05/12 06:04:20;;;;;;;10.68;5.25;;;;;;;11.42;100.00;97938.28;4507079;31;20075;-84
2023/05/12 06:06:47;;;;;;;10.90;4.97;;;;;;;11.91;100.00;97934.19;4510654;31;20107;-84
2023/05/12 06:09:15;;;;;;;10.45;5.12;;;;;;;11.63;100.00;97933.81;4508933;32;20056;-85
2023/05/12 06:11:42;;;;;;;13.50;5.72;;;;;;;11.53;100.00;97947.19;4510121;32;20064;-84
2023/05/12 06:14:09;;;;;;;;;;;;;;;11.91;100.00;97956.56;4504867;31;20442;-87
2023/05/12 06:16:38;;;;;;;10.02;4.78;;;;;;;11.41;100.00;97946.94;4500705;32;19976;-85
2023/05/12 06:19:05;;;;;;;10.70;5.18;;;;;;;11.71;100.00;97944.63;4500607;32;20542;-85
2023/05/12 06:21:32;;;;;;;13.50;4.95;;;;;;;11.58;100.00;97955.53;4500743;31;20097;-85
2023/05/12 06:23:59;;;;;;;8.52;3.12;;;;;;;11.56;100.00;97951.34;4503097;31;20099;-86
2023/05/12 06:26:26;;;;;;;6.95;2.97;;;;;;;11.79;100.00;97958.84;4504091;32;20060;-86
2023/05/12 06:28:55;;;;;;;;;;;;;;;11.72;100.00;97954.06;4511572;31;20074;-86
2023/05/12 06:31:22;;;;;;;8.35;4.05;;;;;;;11.55;100.00;97968.63;4503945;31;20541;-87
2023/05/12 06:33:48;;;;;;;7.35;3.22;;;;;;;11.14;100.00;97970.56;4511811;31;20124;-86
2023/05/12 06:36:16;;;;;;;8.15;3.40;;;;;;;11.49;100.00;97961.16;4715600;26;20099;-84
2023/05/12 06:49:17;;;;;;;8.52;3.92;;;;;;;11.63;100.00;97986.34;4510372;31;96796;-84
2023/05/12 06:51:45;;;;;;;9.07;3.28;;;;;;;11.63;100.00;97986.34;4499000;31;20136;-84
2023/05/12 06:54:12;;;;;;;11.10;4.65;;;;;;;11.78;100.00;97972.66;4499334;31;20427;-84
2023/05/12 06:56:39;;;;;;;8.63;3.47;;;;;;;11.49;100.00;97984.44;4499895;31;20061;-84
2023/05/12 06:59:06;;;;;;;9.32;4.12;;;;;;;11.57;100.00;97984.88;4486645;31;20092;-87
2023/05/12 07:01:33;;;;;;;8.43;3.03;;;;;;;11.41;100.00;97981.34;4484210;32;20161;-84
2023/05/12 07:03:59;;;;;;;8.82;3.47;;;;;;;11.85;100.00;97983.59;4484375;32;20084;-83
2023/05/12 07:06:27;;;;;;;9.30;4.28;;;;;;;11.93;100.00;97980.63;4486445;32;20156;-85
2023/05/12 07:08:54;;;;;;;7.97;3.17;;;;;;;11.50;100.00;97993.00;4484467;32;20089;-85
2023/05/12 07:11:22;;;;;;;6.57;2.67;;;;;;;12.03;100.00;97993.03;4482382;32;20550;-85
2023/05/12 07:13:49;;;;;;;8.13;3.08;;;;;;;11.76;100.00;97989.16;4483209;32;20085;-85
2023/05/12 07:16:17;;;;;;;8.02;3.10;;;;;;;11.36;100.00;97982.47;4482473;32;20076;-85
2023/05/12 07:18:45;;;;;;;8.05;3.40;;;;;;;11.71;100.00;97979.06;4484294;32;20101;-85
2023/05/12 07:21:12;;;;;;;7.30;2.92;;;;;;;11.57;100.00;97990.03;4484735;32;20056;-85
2023/05/12 07:23:39;;;;;;;7.47;3.12;;;;;;;11.53;100.00;97983.34;4482856;32;20726;-85
2023/05/12 07:26:06;;;;;;;11.18;4.78;;;;;;;11.29;100.00;97990.53;4483620;32;20092;-85
2023/05/12 07:28:35;;;;;;;8.55;3.17;;;;;;;11.57;100.00;97987.47;4483181;32;20101;-85
2023/05/12 07:31:06;;;;;;;16.10;4.90;;;;;;;11.33;100.00;97996.37;4483390;32;20752;-85
2023/05/12 07:33:34;;;;;;;16.50;4.47;;;;;;;11.15;100.00;97994.63;4482187;32;20477;-85
2023/05/12 07:36:01;;;;;;;10.18;4.37;;;;;;;11.27;100.00;97997.50;4487423;32;20096;-86
2023/05/12 07:38:31;;;;;;;10.98;3.67;;;;;;;11.13;100.00;97997.28;4492141;32;20095;-85
2023/05/12 07:40:59;;;;;;;11.15;4.65;;;;;;;11.32;100.00;97997.28;4495713;31;20096;-85
2023/05/12 07:43:26;;;;;;;11.23;4.70;;;;;;;11.63;100.00;98003.59;4495178;32;20052;-86
2023/05/12 07:45:54;;;;;;;7.47;3.35;;;;;;;11.33;100.00;97996.37;4494385;32;20073;-86
2023/05/12 07:48:21;;;;;;;14.15;5.25;;;;;;;11.41;100.00;98008.94;4490495;32;20089;-86
2023/05/12 07:50:48;;;;;;;10.52;3.62;;;;;;;11.02;100.00;98017.59;4475452;32;20127;-86
2023/05/12 07:53:15;;;;;;;;;;;;;;;11.25;100.00;98024.28;4478480;32;20705;-85
2023/05/12 07:55:42;;;;;;;9.85;3.80;;;;;;;11.23;100.00;98011.44;4478021;32;19982;-85
2023/05/12 07:58:11;;;;;;;10.27;4.15;;;;;;;11.77;100.00;98012.34;4480731;32;20069;-86
2023/05/12 08:00:38;;;;;;;9.02;3.60;;;;;;;11.62;100.00;98020.00;4482004;32;20057;-86
2023/05/12 08:03:06;;;;;;;12.07;4.70;;;;;;;11.61;100.00;98024.34;4484618;32;20064;-85
2023/05/12 08:05:33;;;;;;;11.48;4.20;;;;;;;11.93;100.00;98024.59;4483194;32;20061;-85
2023/05/12 08:08:00;;;;;;;11.75;4.80;;;;;;;12.01;100.00;98025.88;4481991;31;20149;-86
2023/05/12 08:10:28;;;;;;;7.68;3.05;;;;;;;11.56;100.00;98032.31;4479775;32;20096;-85
2023/05/12 08:12:55;;;;;;;9.05;3.75;;;;;;;11.51;100.00;98028.28;4480993;32;20117;-85
2023/05/12 08:15:22;;;;;;;9.57;4.20;;;;;;;11.48;100.00;98041.31;4481429;32;20094;-85
2023/05/12 08:17:49;;;;;;;13.80;5.65;;;;;;;11.55;100.00;98038.38;4482646;32;20689;-85
2023/05/12 08:20:16;;;;;;;12.98;5.40;;;;;;;11.45;100.00;98031.12;4481283;32;20065;-85
2023/05/12 08:22:43;;;;;;;12.90;5.22;;;;;;;11.29;100.00;98038.75;4475742;32;20103;-84
2023/05/12 08:25:10;;;;;;;8.25;3.58;;;;;;;11.22;100.00;98027.03;4476772;32;20107;-86
2023/05/12 08:27:38;;;;;;;10.57;3.83;;;;;;;11.23;100.00;98021.78;4478172;32;20157;-85
2023/05/12 08:30:05;;;;;;;10.45;4.30;;;;;;;11.20;100.00;98021.94;4473245;32;20129;-84
2023/05/12 08:32:32;;;;;;;10.50;4.47;;;;;;;11.21;100.00;98023.59;4473671;32;20084;-84
2023/05/12 08:35:00;;;;;;;12.95;4.97;;;;;;;11.57;100.00;98021.06;4481549;32;20118;-85
2023/05/12 08:37:27;;;;;;;10.48;4.43;;;;;;;11.36;100.00;98029.81;4482949;32;20702;-86
2023/05/12 08:39:56;;;;;;;10.57;4.85;;;;;;;11.37;100.00;98036.63;4482899;32;20093;-86
2023/05/12 08:42:30;;;;;;;10.20;4.30;;;;;;;11.75;100.00;98029.69;4481710;32;20057;-85
2023/05/12 08:44:59;;;;;;;8.75;4.05;;;;;;;11.58;100.00;98030.47;4482655;32;20099;-85
2023/05/12 08:47:26;;;;;;;9.23;4.22;;;;;;;11.97;100.00;98036.44;4481136;32;20065;-85
2023/05/12 08:50:02;;;;;;;6.97;3.12;;;;;;;11.60;100.00;98043.34;4481153;32;20822;-84
2023/05/12 08:52:33;;;;;;;9.18;3.78;;;;;;;11.69;100.00;98029.97;4480123;32;20065;-84
2023/05/12 08:55:00;;;;;;;7.50;3.03;;;;;;;11.31;100.00;98031.78;4479247;32;20064;-84
2023/05/12 08:57:30;;;;;;;15.63;4.28;;;;;;;11.32;100.00;98030.84;4482369;32;20069;-84
2023/05/12 09:00:04;;;;;;;11.27;4.53;;;;;;;11.38;100.00;98033.19;4481088;32;20092;-84
2023/05/12 09:02:31;;;;;;;10.05;4.85;;;;;;;11.39;100.00;98034.00;4479578;32;20071;-84
2023/05/12 09:05:17;;;;;;;8.50;3.72;;;;;;;11.31;100.00;98031.78;4476807;32;20148;-84
2023/05/12 09:07:45;;;;;;;8.82;3.47;;;;;;;11.23;100.00;98032.13;4472846;32;20101;-84
2023/05/12 09:10:16;;;;;;;7.72;3.50;;;;;;;11.30;100.00;98033.53;4472298;32;20164;-84
2023/05/12 09:13:11;;;;;;;9.95;4.47;;;;;;;11.63;100.00;98038.03;4474714;32;20721;-85
2023/05/12 09:15:41;;;;;;;10.07;4.30;;;;;;;11.43;100.00;98028.63;4472107;32;20107;-85
2023/05/12 09:18:08;;;;;;;8.55;3.62;;;;;;;11.15;100.00;98034.19;4471183;32;20674;-85
2023/05/12 09:20:35;;;;;;;10.18;4.00;;;;;;;11.50;100.00;98034.34;4472080;32;20105;-85
2023/05/12 09:23:19;;;;;;;9.65;4.07;;;;;;;11.46;100.00;98038.81;4472228;32;20150;-85
2023/05/12 09:25:46;;;;;;;8.52;3.65;;;;;;;11.30;100.00;98032.69;4471969;32;20431;-85
2023/05/12 09:28:13;;;;;;;9.73;4.30;;;;;;;11.37;100.00;98044.38;4471097;32;20119;-85
2023/05/12 09:30:41;;;;;;;10.38;3.80;;;;;;;11.49;100.00;98046.44;4472202;32;20158;-85
2023/05/12 09:33:10;;;;;;;9.30;4.18;;;;;;;11.40;100.00;98041.69;4471967;32;20159;-85
2023/05/12 09:35:41;;;;;;;11.55;4.30;;;;;;;11.09;100.00;98051.72;4470697;32;20103;-85
2023/05/12 09:38:10;;;;;;;12.02;4.25;;;;;;;11.24;100.00;98048.44;4471680;32;20113;-84
2023/05/12 09:40:37;;;;;;;7.72;3.37;;;;;;;11.03;100.00;98047.66;4471911;32;20088;-85
2023/05/12 09:43:04;;;;;;;10.18;4.32;;;;;;;11.59;100.00;98041.69;4470518;32;20788;-85
2023/05/12 09:45:35;;;;;;;9.38;4.30;;;;;;;11.48;100.00;98052.50;4470610;32;20157;-85
2023/05/12 09:48:10;;;;;;;10.38;4.32;;;;;;;11.50;100.00;98040.34;4470716;32;20698;-86
2023/05/12 09:50:47;;;;;;;9.57;3.87;;;;;;;11.26;100.00;98044.88;4471542;32;20493;-85
2023/05/12 09:53:16;;;;;;;10.30;4.28;;;;;;;11.57;100.00;98049.47;4471556;32;20084;-85
2023/05/12 09:55:44;;;;;;;11.07;3.12;;;;;;;11.68;100.00;98051.56;4470755;32;20085;-86
2023/05/12 09:58:15;;;;;;;11.12;4.05;;;;;;;11.61;100.00;98046.78;4472549;32;20144;-86
2023/05/12 10:00:43;;;;;;;10.23;4.32;;;;;;;11.20;100.00;98042.59;4476189;32;20116;-85
2023/05/12 10:03:31;;;;;;;13.80;4.95;;;;;;;11.33;100.00;98048.03;4472054;32;20107;-86
2023/05/12 10:06:00;;;;;;;9.60;4.25;;;;;;;11.42;100.00;98051.94;4472645;32;20411;-85
2023/05/12 10:08:37;;;;;;;10.63;4.30;;;;;;;11.39;100.00;98052.09;4459025;32;20718;-85
2023/05/12 10:11:05;;;;;;;9.05;3.85;;;;;;;11.65;100.00;98046.53;4471690;32;20136;-84
2023/05/12 10:13:32;;;;;;;8.90;3.83;;;;;;;11.68;100.00;98061.91;4472542;32;20089;-83
2023/05/12 10:16:00;;;;;;;9.43;3.85;;;;;;;11.54;100.00;98051.38;4469947;32;20424;-84
2023/05/12 10:18:27;;;;;;;12.25;5.47;;;;;;;11.18;100.00;98036.66;4471242;32;20113;-84
2023/05/12 10:20:55;;;;;;;11.43;4.97;;;;;;;11.00;100.00;98058.97;4477028;32;20069;-84
2023/05/12 10:23:22;;;;;;;10.20;4.28;;;;;;;11.39;100.00;98057.25;4480365;32;20128;-85
2023/05/12 10:25:49;;;;;;;10.07;4.20;;;;;;;11.55;100.00;98047.88;4476493;32;20081;-85
2023/05/12 10:28:16;;;;;;;11.38;5.20;;;;;;;11.40;100.00;98046.84;4474272;32;20443;-84
2023/05/12 10:30:44;;;;;;;11.40;5.12;;;;;;;11.87;100.00;98065.31;4473831;32;20153;-85
2023/05/12 10:33:11;;;;;;;11.90;5.90;;;;;;;11.59;100.00;98047.69;4480202;32;20505;-84
2023/05/12 10:35:38;;;;;;;9.40;4.07;;;;;;;11.99;100.00;98052.72;4482070;32;20110;-84
2023/05/12 10:38:19;;;;;;;10.63;5.18;;;;;;;11.99;100.00;98056.13;4483296;32;20076;-84
2023/05/12 10:40:58;;;;;;;12.05;5.03;;;;;;;11.73;100.00;98057.37;4466329;32;20069;-85
2023/05/12 10:43:26;;;;;;;11.18;4.43;;;;;;;11.49;100.00;98043.84;4467359;32;20161;-85
2023/05/12 10:46:12;;;;;;;11.32;5.60;;;;;;;11.87;100.00;98059.31;4474150;32;20085;-82
2023/05/12 10:49:03;;;;;;;13.57;6.22;;;;;;;11.90;100.00;98058.31;4470705;32;20111;-82
2023/05/12 10:51:31;;;;;;;10.20;4.22;;;;;;;11.88;100.00;98050.66;4476738;32;20084;-87
2023/05/12 10:54:06;;;;;;;11.20;5.05;;;;;;;11.64;100.00;98055.22;4477719;32;20105;-87
2023/05/12 10:56:36;;;;;;;12.82;5.80;;;;;;;12.06;100.00;98062.69;4476398;32;20081;-87
2023/05/12 10:59:23;;;;;;;14.68;6.18;;;;;;;11.85;100.00;98055.97;4475375;32;20075;-87
2023/05/12 11:02:13;;;;;;;14.70;6.60;;;;;;;11.96;100.00;98060.62;4476270;32;20117;-87
2023/05/12 11:04:54;;;;;;;9.70;4.30;;;;;;;12.17;100.00;98054.41;4473490;32;20553;-87
2023/05/12 11:07:23;;;;;;;12.23;4.72;;;;;;;11.87;100.00;98060.16;4476981;32;20083;-87
2023/05/12 11:09:50;;;;;;;14.13;6.87;;;;;;;12.09;100.00;98059.13;4475845;32;20077;-87
2023/05/12 11:12:26;;;;;;;14.40;6.07;;;;;;;12.38;100.00;98057.69;4477217;32;20815;-87
2023/05/12 11:14:53;;;;;;;14.18;6.85;;;;;;;12.77;100.00;98066.97;4475375;32;20138;-87
2023/05/12 11:17:20;;;;;;;12.55;5.60;;;;;;;12.57;100.00;98067.97;4476504;32;20092;-86
2023/05/12 11:19:49;;;;;;;11.70;5.07;;;;;;;12.29;100.00;98066.75;4475609;32;20142;-87
2023/05/12 11:22:20;;;;;;;14.07;6.28;;;;;;;12.11;100.00;98059.88;4473308;32;20210;-87
2023/05/12 11:24:48;;;;;;;12.93;6.00;;;;;;;12.48;100.00;98058.91;4477810;32;20077;-87
2023/05/12 11:27:18;;;;;;;12.98;6.20;;;;;;;12.27;100.00;98059.97;4479516;32;20061;-87
2023/05/12 11:29:58;;;;;;;13.30;6.30;;;;;;;12.66;100.00;98070.09;4478893;32;20100;-87
2023/05/12 11:32:26;;;;;;;10.25;4.25;;;;;;;12.22;100.00;98062.78;4479694;32;20393;-88
2023/05/12 11:34:53;;;;;;;9.45;4.45;;;;;;;12.70;100.00;98061.25;4478110;32;20081;-86
2023/05/12 11:37:21;;;;;;;13.55;6.00;;;;;;;12.30;100.00;98068.41;4477739;32;20072;-88
2023/05/12 11:39:48;;;;;;;13.25;6.45;;;;;;;11.91;100.00;98060.88;4479009;32;20100;-87
2023/05/12 11:42:15;;;;;;;14.87;7.50;;;;;;;11.70;100.00;98079.94;4474189;32;20097;-85
2023/05/12 11:44:47;;;;;;;13.43;6.22;;;;;;;12.23;100.00;98079.13;4473913;32;20136;-87